Time;durP1;ratioP1;P1;durP2;ratioP2;P2;SDS_P1;SDS_P2;PMS_P1;PMS_P2;Temp;Humidity;BMP_temperature;BMP_pressure;BME280_temperature;BME280_humidity;BME280_pressure;Samples;Min_cycle;Max_cycle;Signal;HPM_P1;HPM_P2
2021/12/30 00:01:12;;;;;;;48.67;22.67;;;10.10;99.90;;;;;;4971035;28;20113;-69
2021/12/30 00:03:38;;;;;;;63.40;27.47;;;10.10;99.90;;;;;;4969834;28;20038;-68
2021/12/30 00:06:05;;;;;;;52.27;23.20;;;10.00;99.90;;;;;;4970311;28;20035;-69
2021/12/30 00:08:31;;;;;;;46.13;22.80;;;10.00;99.90;;;;;;4970663;28;20027;-69
2021/12/30 00:10:57;;;;;;;50.83;20.87;;;10.00;99.90;;;;;;4970957;28;20027;-69
2021/12/30 00:13:25;;;;;;;51.27;24.07;;;;;;;;;;4969370;28;20360;-68
2021/12/30 00:15:52;;;;;;;66.40;27.50;;;10.00;99.90;;;;;;4970684;28;20046;-68
2021/12/30 00:18:18;;;;;;;65.50;25.93;;;9.90;99.90;;;;;;4970493;28;20358;-68
2021/12/30 00:20:44;;;;;;;61.60;24.27;;;10.00;99.90;;;;;;4970508;28;20031;-68
2021/12/30 00:23:10;;;;;;;43.53;22.77;;;10.30;99.90;;;;;;4970990;28;20333;-68
2021/12/30 00:25:40;;;;;;;63.53;23.57;;;10.30;99.90;;;;;;4970680;28;20106;-68
2021/12/30 00:28:09;;;;;;;65.40;24.23;;;10.30;99.90;;;;;;4970788;28;20034;-68
2021/12/30 00:30:35;;;;;;;70.50;24.30;;;10.30;99.90;;;;;;4970616;28;20050;-68
2021/12/30 00:33:00;;;;;;;50.13;21.57;;;10.50;99.90;;;;;;4968844;28;20122;-68
2021/12/30 00:35:26;;;;;;;51.80;21.27;;;;;;;;;;4970022;28;20536;-68
2021/12/30 00:37:52;;;;;;;57.83;23.65;;;10.50;99.90;;;;;;4970493;28;20050;-69
2021/12/30 00:40:18;;;;;;;52.83;23.00;;;;;;;;;;4970684;28;20396;-68
2021/12/30 00:42:43;;;;;;;58.90;22.93;;;10.70;99.90;;;;;;4970049;28;20376;-68
2021/12/30 00:45:09;;;;;;;55.93;20.43;;;10.80;99.90;;;;;;4970414;28;20042;-68
2021/12/30 00:47:34;;;;;;;49.53;20.60;;;10.70;99.90;;;;;;4969799;28;20058;-68
2021/12/30 00:50:00;;;;;;;59.57;22.30;;;10.90;99.90;;;;;;4970065;28;20031;-68
2021/12/30 00:52:26;;;;;;;40.20;18.57;;;10.80;99.90;;;;;;4970147;28;20038;-70
2021/12/30 00:54:51;;;;;;;54.87;18.87;;;10.80;99.90;;;;;;4970033;28;20400;-68
2021/12/30 00:57:17;;;;;;;48.73;16.37;;;;;;;;;;4968429;28;20027;-68
2021/12/30 00:59:43;;;;;;;51.00;18.13;;;10.80;99.90;;;;;;4968371;28;20082;-68
2021/12/30 01:02:08;;;;;;;39.90;16.67;;;10.90;99.90;;;;;;4969030;28;20412;-68
2021/12/30 01:04:34;;;;;;;45.60;16.17;;;10.90;99.90;;;;;;4969959;28;20157;-68
2021/12/30 01:07:00;;;;;;;47.73;15.70;;;10.90;99.90;;;;;;4969813;28;20122;-68
2021/12/30 01:09:26;;;;;;;43.27;14.60;;;;;;;;;;4969566;28;20039;-69
2021/12/30 01:11:54;;;;;;;50.37;15.80;;;11.10;99.90;;;;;;4969650;28;20038;-69
2021/12/30 01:14:24;;;;;;;43.13;14.45;;;11.10;99.90;;;;;;4969622;28;20027;-69
2021/12/30 01:16:54;;;;;;;36.42;13.23;;;10.90;99.90;;;;;;4983742;28;20048;-69
2021/12/30 01:19:42;;;;;;;40.77;13.40;;;11.20;99.90;;;;;;4969386;28;20026;-69
2021/12/30 01:22:10;;;;;;;42.50;13.87;;;11.10;99.90;;;;;;4969678;28;20019;-69
2021/12/30 01:24:36;;;;;;;53.87;12.77;;;;;;;;;;4969601;28;20065;-69
2021/12/30 01:27:02;;;;;;;43.20;13.77;;;11.10;99.90;;;;;;4969569;28;20034;-69
2021/12/30 01:29:29;;;;;;;37.20;13.85;;;11.20;99.90;;;;;;4967785;28;20373;-69
2021/12/30 01:31:55;;;;;;;53.73;12.67;;;11.40;99.90;;;;;;4969028;28;20019;-69
2021/12/30 01:34:21;;;;;;;50.83;17.00;;;11.60;99.90;;;;;;4969424;28;20037;-68
2021/12/30 01:36:47;;;;;;;48.20;14.32;;;11.40;99.90;;;;;;4969202;28;20440;-69
2021/12/30 01:39:13;;;;;;;45.67;14.23;;;11.40;99.90;;;;;;4969590;28;20101;-68
2021/12/30 01:41:40;;;;;;;54.87;16.07;;;11.30;99.90;;;;;;4969133;28;20034;-68
2021/12/30 01:44:06;;;;;;;60.05;17.67;;;11.60;99.90;;;;;;4968852;28;20019;-68
2021/12/30 01:46:40;;;;;;;59.13;19.73;;;11.60;99.90;;;;;;4967883;28;20440;-69
2021/12/30 01:49:06;;;;;;;56.33;17.53;;;;;;;;;;4969249;28;20399;-68
2021/12/30 01:51:32;;;;;;;58.63;17.77;;;11.80;99.90;;;;;;4969213;28;20121;-68
2021/12/30 01:53:58;;;;;;;54.27;18.97;;;11.80;99.90;;;;;;4969219;28;20027;-69
2021/12/30 01:56:23;;;;;;;64.45;18.50;;;11.60;99.90;;;;;;4969000;28;20121;-69
2021/12/30 01:58:49;;;;;;;53.90;19.80;;;11.70;99.90;;;;;;4968900;28;20102;-69
2021/12/30 02:01:15;;;;;;;51.67;21.02;;;11.70;99.90;;;;;;4969372;28;20070;-69
2021/12/30 02:03:40;;;;;;;69.10;19.55;;;11.70;99.90;;;;;;4968450;28;20035;-69
2021/12/30 02:06:06;;;;;;;66.57;20.67;;;;;;;;;;4969207;28;20100;-69
2021/12/30 02:08:32;;;;;;;58.30;22.20;;;11.70;99.90;;;;;;4969109;28;20085;-68
2021/12/30 02:10:58;;;;;;;56.00;20.58;;;11.90;99.90;;;;;;4968968;28;20037;-69
2021/12/30 02:13:24;;;;;;;56.30;18.95;;;;;;;;;;4967108;28;20038;-69
2021/12/30 02:15:50;;;;;;;47.60;18.23;;;11.70;99.90;;;;;;4968784;28;20399;-67
2021/12/30 02:18:16;;;;;;;61.13;20.95;;;11.80;99.90;;;;;;4971150;28;20023;-68
2021/12/30 02:20:48;;;;;;;51.90;19.90;;;11.80;99.90;;;;;;4972508;28;20341;-68
2021/12/30 02:23:20;;;;;;;55.33;21.13;;;11.80;99.90;;;;;;4973074;28;20046;-68
2021/12/30 02:25:47;;;;;;;63.70;21.63;;;11.80;99.90;;;;;;4972439;28;20026;-68
2021/12/30 02:28:15;;;;;;;61.95;21.17;;;11.40;99.90;;;;;;4972355;28;20019;-68
2021/12/30 02:30:42;;;;;;;52.72;19.27;;;11.60;99.90;;;;;;4972350;28;20069;-68
2021/12/30 02:33:07;;;;;;;56.05;21.48;;;11.80;99.90;;;;;;4972782;28;20472;-68
2021/12/30 02:35:33;;;;;;;56.15;20.98;;;11.80;99.90;;;;;;4972236;28;20047;-68
2021/12/30 02:37:59;;;;;;;65.93;22.90;;;11.80;99.90;;;;;;4972683;28;20126;-68
2021/12/30 02:40:27;;;;;;;49.40;20.75;;;11.70;99.90;;;;;;4972201;28;20042;-68
2021/12/30 02:42:53;;;;;;;63.92;21.52;;;11.70;99.90;;;;;;4972026;28;20030;-68
2021/12/30 02:45:19;;;;;;;64.20;20.38;;;11.80;99.90;;;;;;4972581;28;20031;-68
2021/12/30 02:47:44;;;;;;;49.53;19.63;;;11.70;99.90;;;;;;4971835;28;20038;-68
2021/12/30 02:50:10;;;;;;;53.92;22.27;;;11.60;99.90;;;;;;4972614;28;20031;-68
2021/12/30 02:52:36;;;;;;;55.53;20.40;;;11.70;99.90;;;;;;4972277;28;20030;-69
2021/12/30 02:55:03;;;;;;;46.38;18.33;;;11.80;99.90;;;;;;4972079;28;20050;-69
2021/12/30 02:57:28;;;;;;;53.33;20.60;;;11.70;99.90;;;;;;4970320;28;20057;-69
2021/12/30 02:59:54;;;;;;;59.83;22.45;;;11.80;99.90;;;;;;4972115;28;20054;-69
2021/12/30 03:02:20;;;;;;;50.75;21.27;;;11.70;99.90;;;;;;4971824;28;20027;-69
2021/12/30 03:04:46;;;;;;;67.95;22.92;;;11.70;99.90;;;;;;4971315;28;20380;-69
2021/12/30 03:07:11;;;;;;;66.68;23.02;;;11.60;99.90;;;;;;4972026;28;20069;-70
2021/12/30 03:09:37;;;;;;;53.63;22.00;;;11.70;99.90;;;;;;4971709;28;20043;-69
2021/12/30 03:12:03;;;;;;;56.25;21.60;;;11.70;99.90;;;;;;4971737;28;20117;-69
2021/12/30 03:14:29;;;;;;;62.28;23.02;;;11.70;99.90;;;;;;4971678;28;20039;-69
2021/12/30 03:16:54;;;;;;;50.90;22.73;;;11.70;99.90;;;;;;4971555;28;20487;-69
2021/12/30 03:19:20;;;;;;;53.03;21.88;;;11.70;99.90;;;;;;4971854;28;20114;-69
2021/12/30 03:21:46;;;;;;;56.53;23.65;;;11.60;99.90;;;;;;4971217;28;20475;-69
2021/12/30 03:24:12;;;;;;;54.63;22.70;;;11.80;99.90;;;;;;4971719;28;20030;-69
2021/12/30 03:26:38;;;;;;;51.05;22.98;;;;;;;;;;4969585;28;20146;-69
2021/12/30 03:29:06;;;;;;;57.78;23.75;;;11.90;99.90;;;;;;4968963;28;20074;-69
2021/12/30 03:31:32;;;;;;;55.78;25.65;;;11.60;99.90;;;;;;4971451;28;20058;-69
2021/12/30 03:33:58;;;;;;;59.22;26.38;;;11.60;99.90;;;;;;4970761;28;20081;-69
2021/12/30 03:36:25;;;;;;;55.78;26.33;;;11.70;99.90;;;;;;4971354;28;20074;-69
2021/12/30 03:38:53;;;;;;;60.17;26.42;;;11.60;99.90;;;;;;4971614;28;20039;-69
2021/12/30 03:41:21;;;;;;;52.60;26.77;;;11.60;99.90;;;;;;4971114;28;20030;-70
2021/12/30 03:43:47;;;;;;;54.45;24.75;;;11.90;99.90;;;;;;4970928;28;20098;-70
2021/12/30 03:46:13;;;;;;;71.88;24.33;;;11.80;99.90;;;;;;4971490;28;20434;-70
2021/12/30 03:48:43;;;;;;;58.30;24.70;;;11.60;99.90;;;;;;4970684;28;20105;-69
2021/12/30 03:51:13;;;;;;;63.73;27.87;;;11.60;99.90;;;;;;4971151;28;20035;-70
2021/12/30 03:53:41;;;;;;;65.30;25.73;;;11.70;99.90;;;;;;4970902;28;20066;-69
2021/12/30 03:56:09;;;;;;;63.65;25.63;;;11.70;99.90;;;;;;4970749;28;20043;-69
2021/12/30 03:58:36;;;;;;;52.42;22.90;;;11.80;99.90;;;;;;4971085;28;20026;-70
2021/12/30 04:01:03;;;;;;;61.05;24.98;;;11.80;99.90;;;;;;4970925;28;20027;-69
2021/12/30 04:03:29;;;;;;;55.80;22.23;;;11.80;99.90;;;;;;4971118;28;20053;-70
2021/12/30 04:05:55;;;;;;;55.35;23.92;;;12.20;99.90;;;;;;4971021;28;20138;-69
2021/12/30 04:08:21;;;;;;;80.57;27.42;;;;;;;;;;4971278;28;20050;-70
2021/12/30 04:10:47;;;;;;;54.38;23.67;;;11.70;99.90;;;;;;4968990;28;20089;-69
2021/12/30 04:13:13;;;;;;;47.50;20.60;;;12.00;99.90;;;;;;4971075;28;20041;-69
2021/12/30 04:15:39;;;;;;;69.20;26.23;;;11.80;99.90;;;;;;4970253;28;20052;-69
2021/12/30 04:18:04;;;;;;;65.78;26.20;;;11.90;99.90;;;;;;4971180;28;20035;-69
2021/12/30 04:20:30;;;;;;;63.00;25.52;;;12.00;99.90;;;;;;4970605;28;20038;-69
2021/12/30 04:22:55;;;;;;;88.07;30.27;;;12.00;99.90;;;;;;4970554;28;20089;-69
2021/12/30 04:25:21;;;;;;;64.50;26.77;;;11.80;99.90;;;;;;4970588;28;20035;-69
2021/12/30 04:27:47;;;;;;;50.15;26.00;;;11.90;99.90;;;;;;4969045;28;20380;-70
2021/12/30 04:30:14;;;;;;;57.88;25.58;;;11.90;99.90;;;;;;4970607;28;20122;-70
2021/12/30 04:32:40;;;;;;;45.42;24.52;;;;;;;;;;4970265;28;20033;-70
2021/12/30 04:35:07;;;;;;;58.25;25.40;;;12.00;99.90;;;;;;4970056;28;20038;-70
2021/12/30 04:37:33;;;;;;;52.20;26.33;;;11.90;99.90;;;;;;4968741;28;20027;-69
2021/12/30 04:39:59;;;;;;;45.50;22.23;;;;;;;;;;4969003;28;20038;-70
2021/12/30 04:42:25;;;;;;;45.92;23.27;;;12.10;99.90;;;;;;4969964;28;20422;-70
2021/12/30 04:44:50;;;;;;;40.17;20.73;;;12.10;99.90;;;;;;4970177;28;20034;-70
2021/12/30 04:47:17;;;;;;;57.83;22.83;;;12.00;99.90;;;;;;4970404;28;20031;-70
2021/12/30 04:49:42;;;;;;;51.22;24.30;;;12.10;99.90;;;;;;4969977;28;20531;-70
2021/12/30 04:52:08;;;;;;;43.78;20.75;;;12.10;99.90;;;;;;4970406;28;20041;-70
2021/12/30 04:54:34;;;;;;;50.22;21.58;;;12.00;99.90;;;;;;4969717;28;20475;-70
2021/12/30 04:57:00;;;;;;;39.63;19.85;;;12.10;99.90;;;;;;4970186;28;20115;-70
2021/12/30 04:59:25;;;;;;;72.47;24.42;;;12.30;99.90;;;;;;4970013;28;20447;-70
2021/12/30 05:01:51;;;;;;;43.58;18.35;;;;;;;;;;4969286;28;20023;-70
2021/12/30 05:04:17;;;;;;;41.40;17.83;;;12.00;99.90;;;;;;4969831;28;20027;-70
2021/12/30 05:06:43;;;;;;;35.00;16.90;;;12.00;99.90;;;;;;4969426;28;20034;-70
2021/12/30 05:09:09;;;;;;;30.25;17.08;;;12.30;99.90;;;;;;4969552;28;20605;-70
2021/12/30 05:11:40;;;;;;;28.77;16.63;;;12.00;99.90;;;;;;4969944;28;20388;-70
2021/12/30 05:14:06;;;;;;;43.80;19.40;;;12.30;99.90;;;;;;4969803;28;20050;-70
2021/12/30 05:16:32;;;;;;;26.98;16.35;;;12.30;99.90;;;;;;4969697;28;20070;-70
2021/12/30 05:18:58;;;;;;;27.33;16.45;;;11.80;99.90;;;;;;4969760;28;20027;-70
2021/12/30 05:21:24;;;;;;;27.00;14.15;;;;;;;;;;4969298;28;20078;-70
2021/12/30 05:23:49;;;;;;;24.48;12.93;;;12.10;99.90;;;;;;4967772;28;20050;-70
2021/12/30 05:26:16;;;;;;;33.50;15.75;;;12.30;99.90;;;;;;4969777;28;20073;-70
2021/12/30 05:28:42;;;;;;;28.08;15.07;;;12.40;99.90;;;;;;4968981;28;20046;-70
2021/12/30 05:31:08;;;;;;;26.80;14.15;;;;;;;;;;4969480;28;20038;-70
2021/12/30 05:33:34;;;;;;;25.75;12.25;;;12.30;99.90;;;;;;4969400;28;20035;-70
2021/12/30 05:36:00;;;;;;;22.13;11.73;;;12.10;99.90;;;;;;4969171;28;20173;-70
2021/12/30 05:38:25;;;;;;;18.20;10.43;;;12.30;99.90;;;;;;4968900;28;20031;-70
2021/12/30 05:40:51;;;;;;;21.05;11.30;;;12.40;99.90;;;;;;4969013;28;20100;-70
2021/12/30 05:43:17;;;;;;;20.67;10.60;;;12.20;99.90;;;;;;4969528;28;20034;-70
2021/12/30 05:45:42;;;;;;;18.45;8.88;;;12.30;99.90;;;;;;4968646;28;20392;-70
2021/12/30 05:48:08;;;;;;;17.08;10.65;;;12.20;99.90;;;;;;4969309;28;20469;-70
2021/12/30 05:50:34;;;;;;;13.98;8.68;;;12.00;99.90;;;;;;4968919;28;20030;-70
2021/12/30 05:53:00;;;;;;;15.23;8.80;;;12.50;99.90;;;;;;4982765;28;20034;-70
2021/12/30 05:55:28;;;;;;;17.55;10.70;;;12.50;99.90;;;;;;4968740;28;20050;-69
2021/12/30 05:57:54;;;;;;;18.83;13.10;;;12.30;99.90;;;;;;4969019;28;20026;-70
2021/12/30 06:00:22;;;;;;;23.73;13.98;;;12.40;99.90;;;;;;4968879;28;20034;-69
2021/12/30 06:02:48;;;;;;;26.45;16.42;;;12.80;99.90;;;;;;4968846;28;20031;-69
2021/12/30 06:05:14;;;;;;;28.27;17.73;;;12.60;99.90;;;;;;4968484;28;20049;-69
2021/12/30 06:07:40;;;;;;;26.83;19.65;;;12.50;99.90;;;;;;4968422;28;20038;-69
2021/12/30 06:10:06;;;;;;;28.85;21.50;;;12.60;99.90;;;;;;4968922;28;20476;-70
2021/12/30 06:12:31;;;;;;;38.47;25.33;;;12.10;99.90;;;;;;4963833;28;20035;-70
2021/12/30 06:14:57;;;;;;;37.75;26.80;;;12.60;99.90;;;;;;4968197;28;20041;-69
2021/12/30 06:17:23;;;;;;;30.73;23.60;;;;;;;;;;4967939;28;20037;-70
2021/12/30 06:19:49;;;;;;;30.17;23.55;;;;;;;;;;4968002;28;20065;-69
2021/12/30 06:22:15;;;;;;;40.15;26.83;;;12.40;99.90;;;;;;4968855;28;20391;-68
2021/12/30 06:24:41;;;;;;;39.80;27.67;;;12.70;99.90;;;;;;4968208;28;20356;-69
2021/12/30 06:27:07;;;;;;;38.95;26.45;;;12.70;99.90;;;;;;4968970;28;20105;-69
2021/12/30 06:29:34;;;;;;;40.15;25.40;;;12.40;99.90;;;;;;4966802;28;20135;-70
2021/12/30 06:32:00;;;;;;;46.08;27.23;;;12.40;99.90;;;;;;4968214;28;20049;-69
2021/12/30 06:34:25;;;;;;;49.40;27.17;;;12.60;99.90;;;;;;4968042;28;20496;-69
2021/12/30 06:36:51;;;;;;;39.83;24.80;;;12.80;99.90;;;;;;4968551;28;20047;-69
2021/12/30 06:39:16;;;;;;;44.20;26.23;;;12.70;99.90;;;;;;4967322;28;20027;-69
2021/12/30 06:41:42;;;;;;;43.40;24.02;;;12.70;99.90;;;;;;4968338;28;20061;-68
2021/12/30 06:44:07;;;;;;;35.38;24.65;;;12.60;99.90;;;;;;4968615;28;20416;-69
2021/12/30 06:46:34;;;;;;;33.05;23.63;;;12.80;99.90;;;;;;4968512;28;20570;-68
2021/12/30 06:48:59;;;;;;;23.45;19.00;;;12.70;99.90;;;;;;4968128;28;20506;-69
2021/12/30 06:51:27;;;;;;;18.42;16.08;;;;;;;;;;4967047;28;20058;-69
2021/12/30 06:53:55;;;;;;;20.08;14.05;;;12.90;99.90;;;;;;4968535;28;20022;-69
2021/12/30 06:56:22;;;;;;;17.45;13.85;;;13.00;99.90;;;;;;4968599;28;20104;-69
2021/12/30 06:58:48;;;;;;;18.05;14.05;;;13.00;99.90;;;;;;4968096;28;20098;-69
2021/12/30 07:01:14;;;;;;;18.40;13.27;;;12.80;99.90;;;;;;4968972;28;20162;-69
2021/12/30 07:03:40;;;;;;;15.88;14.27;;;;;;;;;;4967674;28;20023;-69
2021/12/30 07:06:07;;;;;;;19.15;14.55;;;;;;;;;;4972113;28;20174;-69
2021/12/30 07:08:32;;;;;;;16.13;13.65;;;13.10;99.90;;;;;;4972257;28;20102;-69
2021/12/30 07:10:58;;;;;;;14.23;11.82;;;12.90;99.90;;;;;;4972158;28;20107;-69
2021/12/30 07:13:23;;;;;;;17.73;12.88;;;12.80;99.90;;;;;;4971714;28;20388;-69
2021/12/30 07:15:49;;;;;;;18.55;12.05;;;12.70;99.90;;;;;;4971731;28;20120;-69
2021/12/30 07:18:15;;;;;;;20.42;13.70;;;12.60;99.90;;;;;;4971556;28;20485;-69
2021/12/30 07:20:40;;;;;;;16.60;14.85;;;12.90;99.90;;;;;;4971753;28;20095;-69
2021/12/30 07:23:06;;;;;;;17.33;14.80;;;;;;;;;;4972221;28;20110;-69
2021/12/30 07:25:32;;;;;;;19.45;15.27;;;12.80;99.90;;;;;;4971985;28;20113;-69
2021/12/30 07:27:57;;;;;;;17.10;15.20;;;13.10;99.90;;;;;;4971518;28;20039;-69
2021/12/30 07:30:24;;;;;;;18.55;15.10;;;13.00;99.90;;;;;;4971070;28;20105;-69
2021/12/30 07:32:51;;;;;;;26.98;15.85;;;12.90;99.90;;;;;;4970961;28;20026;-69
2021/12/30 07:35:18;;;;;;;26.98;17.63;;;13.00;99.90;;;;;;4970752;28;20105;-69
2021/12/30 07:37:45;;;;;;;23.23;16.83;;;12.90;99.90;;;;;;4971247;28;20110;-69
2021/12/30 07:40:11;;;;;;;28.48;18.60;;;13.10;99.90;;;;;;4971769;28;20042;-69
2021/12/30 07:42:37;;;;;;;24.20;18.38;;;12.80;99.90;;;;;;4971511;28;20038;-69
2021/12/30 07:45:04;;;;;;;26.00;19.08;;;12.50;99.90;;;;;;4971868;28;20387;-69
2021/12/30 07:47:30;;;;;;;27.67;22.35;;;12.90;99.90;;;;;;4970869;28;20030;-69
2021/12/30 07:49:55;;;;;;;28.55;22.02;;;12.90;99.90;;;;;;4971447;28;20035;-69
2021/12/30 07:52:21;;;;;;;32.00;23.50;;;13.10;99.90;;;;;;4971802;28;20039;-69
2021/12/30 07:54:46;;;;;;;31.95;21.80;;;13.10;99.90;;;;;;4970877;28;20023;-69
2021/12/30 07:57:18;;;;;;;36.00;24.25;;;12.90;99.90;;;;;;4970078;28;20026;-69
2021/12/30 07:59:43;;;;;;;32.60;20.58;;;13.20;99.90;;;;;;4971176;28;20034;-70
2021/12/30 08:02:09;;;;;;;28.25;19.17;;;12.90;99.90;;;;;;4971001;28;20019;-69
2021/12/30 08:04:35;;;;;;;28.08;18.02;;;13.10;99.90;;;;;;4971308;28;20030;-69
2021/12/30 08:07:00;;;;;;;26.17;16.30;;;13.10;99.90;;;;;;4966280;28;20022;-69
2021/12/30 08:09:26;;;;;;;21.92;14.77;;;13.20;99.90;;;;;;4963599;28;20030;-69
2021/12/30 08:11:51;;;;;;;22.52;14.40;;;13.30;99.90;;;;;;4970413;28;20031;-69
2021/12/30 08:14:17;;;;;;;20.27;12.18;;;13.50;99.90;;;;;;4970424;28;20034;-69
2021/12/30 08:16:42;;;;;;;17.88;12.48;;;13.50;99.90;;;;;;4969069;28;20026;-69
2021/12/30 08:19:08;;;;;;;21.38;13.23;;;13.60;99.90;;;;;;4970527;28;20034;-69
2021/12/30 08:21:33;;;;;;;14.27;10.77;;;13.60;99.90;;;;;;4970892;28;20409;-69
2021/12/30 08:23:59;;;;;;;15.52;11.27;;;13.60;99.90;;;;;;4970445;28;20034;-69
2021/12/30 08:26:25;;;;;;;18.55;11.85;;;;;;;;;;4970622;28;20046;-69
2021/12/30 08:28:51;;;;;;;15.35;10.85;;;13.50;99.90;;;;;;4970342;28;20046;-69
2021/12/30 08:31:17;;;;;;;13.82;10.60;;;13.40;99.90;;;;;;4970660;28;20023;-69
2021/12/30 08:33:42;;;;;;;12.82;10.25;;;13.60;99.90;;;;;;4968761;28;20031;-69
2021/12/30 08:36:08;;;;;;;13.25;10.45;;;13.70;99.90;;;;;;4970500;28;20047;-69
2021/12/30 08:38:34;;;;;;;12.55;9.90;;;;;;;;;;4970433;28;20019;-69
2021/12/30 08:40:59;;;;;;;12.15;9.95;;;13.50;99.90;;;;;;4970486;28;20023;-69
2021/12/30 08:43:26;;;;;;;12.90;8.82;;;13.50;99.90;;;;;;4970242;28;20277;-69
2021/12/30 08:45:52;;;;;;;12.48;8.45;;;13.70;99.90;;;;;;4968515;28;20038;-69
2021/12/30 08:48:19;;;;;;;11.27;9.48;;;;;;;;;;4969210;28;20026;-69
2021/12/30 08:50:45;;;;;;;12.10;9.88;;;13.60;99.90;;;;;;4969559;28;20389;-69
2021/12/30 08:53:11;;;;;;;13.15;9.75;;;13.60;99.90;;;;;;4969380;28;20030;-69
2021/12/30 08:55:37;;;;;;;12.68;9.57;;;14.00;99.90;;;;;;4969764;28;20027;-69
2021/12/30 08:58:03;;;;;;;17.77;11.48;;;13.60;99.90;;;;;;4969857;28;20019;-69
2021/12/30 09:00:31;;;;;;;16.10;10.70;;;13.80;99.90;;;;;;4969179;28;20495;-69
2021/12/30 09:02:58;;;;;;;13.73;9.80;;;13.70;99.90;;;;;;4970174;28;20441;-69
2021/12/30 09:05:24;;;;;;;12.73;8.85;;;13.80;99.90;;;;;;4969912;28;20118;-69
2021/12/30 09:07:51;;;;;;;13.73;10.25;;;13.90;99.90;;;;;;4966767;28;20431;-68
2021/12/30 09:10:17;;;;;;;14.50;9.75;;;14.10;99.90;;;;;;4969914;28;20063;-68
2021/12/30 09:12:45;;;;;;;13.52;10.20;;;13.70;99.90;;;;;;4969235;28;20027;-69
2021/12/30 09:15:15;;;;;;;13.68;10.00;;;13.70;99.90;;;;;;4969221;28;20065;-69
2021/12/30 09:17:43;;;;;;;12.50;9.30;;;13.80;99.90;;;;;;4969651;28;20023;-69
2021/12/30 09:20:10;;;;;;;12.55;9.20;;;14.00;99.90;;;;;;4969645;28;20528;-69
2021/12/30 09:22:36;;;;;;;11.07;8.27;;;13.80;99.90;;;;;;4969809;28;20110;-69
2021/12/30 09:25:06;;;;;;;8.10;6.68;;;13.80;99.90;;;;;;4969767;28;20058;-68
2021/12/30 09:27:35;;;;;;;13.18;8.18;;;13.80;99.90;;;;;;4968442;28;20038;-69
2021/12/30 09:30:02;;;;;;;11.70;7.25;;;13.70;99.90;;;;;;4969102;28;20449;-69
2021/12/30 09:32:28;;;;;;;10.25;7.22;;;14.10;99.90;;;;;;4969386;28;20026;-69
2021/12/30 09:34:53;;;;;;;8.60;6.38;;;13.90;99.90;;;;;;4969089;28;20133;-68
2021/12/30 09:37:19;;;;;;;12.60;6.47;;;13.90;99.90;;;;;;4969603;28;20085;-69
2021/12/30 09:39:44;;;;;;;8.65;5.03;;;13.90;99.90;;;;;;4969273;28;20062;-68
2021/12/30 09:42:10;;;;;;;7.63;4.90;;;14.00;99.90;;;;;;4969321;28;20026;-68
2021/12/30 09:44:36;;;;;;;12.85;5.38;;;14.00;99.90;;;;;;4968615;28;20043;-68
2021/12/30 09:47:02;;;;;;;10.60;5.28;;;14.20;99.90;;;;;;4962901;28;20030;-68
2021/12/30 09:49:28;;;;;;;18.15;6.80;;;14.10;99.90;;;;;;4968160;28;20041;-68
2021/12/30 09:51:54;;;;;;;11.40;5.60;;;;;;;;;;4969028;28;20022;-68
2021/12/30 09:54:21;;;;;;;8.02;4.70;;;14.30;99.90;;;;;;4969518;28;20025;-68
2021/12/30 09:56:47;;;;;;;13.82;5.22;;;13.90;99.90;;;;;;4967587;28;20034;-68
2021/12/30 09:59:13;;;;;;;15.00;5.03;;;14.30;99.90;;;;;;4969086;28;20023;-68
2021/12/30 10:01:41;;;;;;;8.77;4.68;;;13.70;99.90;;;;;;4968290;28;20380;-69
2021/12/30 10:04:08;;;;;;;13.65;3.90;;;14.20;99.90;;;;;;4967794;28;20090;-69
2021/12/30 10:06:40;;;;;;;11.35;4.68;;;14.20;99.90;;;;;;4967435;28;20045;-69
2021/12/30 10:09:11;;;;;;;14.70;4.63;;;14.10;99.90;;;;;;4968128;28;20110;-69
2021/12/30 10:11:52;;;;;;;11.60;3.97;;;14.30;99.90;;;;;;4967749;28;20302;-69
2021/12/30 10:14:36;;;;;;;9.88;3.72;;;14.20;99.90;;;;;;4968261;28;20093;-68
2021/12/30 10:17:25;;;;;;;14.68;3.50;;;14.20;99.90;;;;;;4967347;28;20187;-69
2021/12/30 10:19:52;;;;;;;9.73;3.08;;;14.20;99.90;;;;;;4967901;28;20038;-68
2021/12/30 10:22:24;;;;;;;12.15;3.25;;;14.40;99.90;;;;;;4965976;28;20153;-69
2021/12/30 10:24:50;;;;;;;14.65;4.30;;;14.40;99.90;;;;;;4967847;28;20041;-69
2021/12/30 10:27:30;;;;;;;10.23;2.88;;;14.30;99.90;;;;;;4968402;28;20031;-69
2021/12/30 10:29:57;;;;;;;12.30;3.70;;;14.10;99.90;;;;;;4968081;28;20046;-69
2021/12/30 10:32:26;;;;;;;13.23;3.75;;;14.50;99.90;;;;;;4968195;28;20043;-68
2021/12/30 10:35:09;;;;;;;9.77;4.03;;;14.20;99.90;;;;;;4967021;28;20042;-69
2021/12/30 10:37:37;;;;;;;9.55;3.95;;;14.50;99.90;;;;;;4968282;28;20098;-68
2021/12/30 10:40:24;;;;;;;15.13;5.03;;;14.20;99.90;;;;;;4972455;28;20098;-69
2021/12/30 10:42:49;;;;;;;13.25;5.60;;;14.40;99.90;;;;;;4971754;28;20035;-68
2021/12/30 10:45:20;;;;;;;11.60;5.35;;;14.30;99.90;;;;;;4972630;28;20117;-68
2021/12/30 10:47:54;;;;;;;7.82;4.95;;;14.30;99.90;;;;;;4971103;28;20023;-68
2021/12/30 10:50:23;;;;;;;12.43;5.35;;;14.30;99.90;;;;;;4972426;28;20035;-68
2021/12/30 10:52:54;;;;;;;11.23;6.65;;;15.40;99.90;;;;;;4971319;28;20050;-68
2021/12/30 10:55:21;;;;;;;19.05;6.00;;;14.30;99.90;;;;;;4971157;28;20039;-68
2021/12/30 10:57:46;;;;;;;18.15;6.22;;;14.40;99.90;;;;;;4971493;28;20029;-68
2021/12/30 11:00:30;;;;;;;16.92;7.22;;;14.60;99.90;;;;;;4971456;28;20039;-69
2021/12/30 11:03:16;;;;;;;11.20;5.55;;;14.40;99.90;;;;;;4971736;28;20054;-69
2021/12/30 11:06:14;;;;;;;17.60;5.65;;;14.40;99.90;;;;;;4971213;28;20522;-69
2021/12/30 11:08:40;;;;;;;16.58;7.85;;;14.20;99.90;;;;;;4965623;28;20097;-69
2021/12/30 11:11:26;;;;;;;11.38;5.88;;;14.30;99.90;;;;;;4970630;28;20030;-70
2021/12/30 11:14:04;;;;;;;10.60;5.18;;;14.30;99.90;;;;;;4968753;28;20034;-70
2021/12/30 11:16:30;;;;;;;10.48;5.88;;;14.20;99.90;;;;;;4970012;28;20468;-70
2021/12/30 11:18:56;;;;;;;13.77;4.93;;;14.30;99.90;;;;;;4970896;28;20027;-69
2021/12/30 11:21:36;;;;;;;10.05;4.32;;;14.30;99.90;;;;;;4971100;28;20400;-70
2021/12/30 11:24:02;;;;;;;16.67;4.75;;;14.20;99.90;;;;;;4971264;28;20035;-70
2021/12/30 11:26:28;;;;;;;10.65;4.20;;;14.40;99.90;;;;;;4970987;28;20027;-70
2021/12/30 11:28:55;;;;;;;45.45;40.63;;;14.40;99.90;;;;;;4971202;28;20555;-70
2021/12/30 11:31:20;;;;;;;24.55;15.43;;;14.60;99.90;;;;;;4971860;28;20026;-70
2021/12/30 11:33:47;;;;;;;29.05;19.67;;;14.20;99.90;;;;;;4969806;28;20030;-70
2021/12/30 11:36:12;;;;;;;54.03;48.20;;;14.40;99.90;;;;;;4970580;28;20038;-71
2021/12/30 11:38:38;;;;;;;80.55;72.38;;;14.50;99.90;;;;;;4967356;28;20077;-70
2021/12/30 11:41:04;;;;;;;28.75;23.10;;;14.40;99.90;;;;;;4971577;28;20022;-70
2021/12/30 11:43:44;;;;;;;30.40;23.83;;;14.60;99.90;;;;;;4970829;28;20050;-70
2021/12/30 11:46:36;;;;;;;14.57;6.72;;;14.40;99.90;;;;;;4969669;28;20034;-70
2021/12/30 11:49:02;;;;;;;11.77;3.92;;;14.60;99.90;;;;;;4970428;28;20031;-70
2021/12/30 11:51:45;;;;;;;9.93;3.42;;;14.50;99.90;;;;;;4970122;28;20030;-70
2021/12/30 11:54:39;;;;;;;13.07;3.75;;;14.50;99.90;;;;;;4971314;28;20031;-69
2021/12/30 11:57:32;;;;;;;15.50;4.00;;;14.40;99.90;;;;;;4966988;28;20031;-69
2021/12/30 12:00:36;;;;;;;14.52;4.30;;;14.50;99.90;;;;;;4970625;28;20034;-68
2021/12/30 12:03:21;;;;;;;12.17;3.93;;;14.50;99.90;;;;;;4971118;28;20030;-70
2021/12/30 12:05:47;;;;;;;13.30;4.15;;;14.30;99.90;;;;;;4969138;28;20070;-70
2021/12/30 12:08:14;;;;;;;13.65;4.22;;;14.50;99.90;;;;;;4970150;28;20026;-68
2021/12/30 12:10:40;;;;;;;10.25;3.13;;;14.60;99.90;;;;;;4970676;28;20123;-68
2021/12/30 12:13:35;;;;;;;9.57;3.70;;;14.50;99.90;;;;;;4970933;28;20053;-69
2021/12/30 12:16:01;;;;;;;11.77;3.78;;;14.50;99.90;;;;;;4970562;28;20037;-69
2021/12/30 12:18:29;;;;;;;12.88;4.82;;;14.50;99.90;;;;;;4969930;28;20495;-68
2021/12/30 12:20:56;;;;;;;9.45;3.67;;;14.50;99.90;;;;;;4970271;28;20034;-68
2021/12/30 12:23:42;;;;;;;10.70;3.95;;;14.50;99.90;;;;;;4968708;28;20022;-69
2021/12/30 12:26:07;;;;;;;14.27;4.13;;;14.40;99.90;;;;;;4970455;28;20027;-68
2021/12/30 12:28:33;;;;;;;13.52;4.22;;;14.50;99.90;;;;;;4963982;28;20021;-68
2021/12/30 12:30:59;;;;;;;10.60;3.80;;;14.50;99.90;;;;;;4969499;28;20033;-68
2021/12/30 12:33:33;;;;;;;9.88;3.72;;;14.30;99.90;;;;;;4968867;28;20114;-69
2021/12/30 12:36:01;;;;;;;7.65;3.25;;;14.60;99.90;;;;;;4970440;28;20077;-68
2021/12/30 12:38:36;;;;;;;13.32;4.38;;;14.50;99.90;;;;;;4969835;28;20026;-68
2021/12/30 12:41:32;;;;;;;9.48;3.97;;;14.50;99.90;;;;;;4969850;28;20031;-68